sensor_id;sensor_type;location;lat;lon;timestamp;pressure;altitude;pressure_sealevel;temperature;humidity
65800;BME280;52544;48.116;11.660;2023-07-13T00:01:42;95572.03;;;19.11;100.00
65800;BME280;52544;48.116;11.660;2023-07-13T00:04:08;95565.03;;;19.10;100.00
65800;BME280;52544;48.116;11.660;2023-07-13T00:06:33;95563.00;;;19.12;100.00
65800;BME280;52544;48.116;11.660;2023-07-13T00:09:00;95561.31;;;19.11;100.00
65800;BME280;52544;48.116;11.660;2023-07-13T00:11:27;95546.59;;;19.07;100.00
65800;BME280;52544;48.116;11.660;2023-07-13T00:13:53;95549.50;;;19.06;100.00
65800;BME280;52544;48.116;11.660;2023-07-13T00:16:18;95551.34;;;19.05;100.00
65800;BME280;52544;48.116;11.660;2023-07-13T00:18:45;95548.31;;;19.08;100.00
65800;BME280;52544;48.116;11.660;2023-07-13T00:21:11;95555.69;;;19.06;100.00
65800;BME280;52544;48.116;11.660;2023-07-13T00:23:38;95566.69;;;19.11;100.00
65800;BME280;52544;48.116;11.660;2023-07-13T00:26:07;95571.69;;;19.14;100.00
65800;BME280;52544;48.116;11.660;2023-07-13T00:28:33;95571.88;;;19.13;100.00
65800;BME280;52544;48.116;11.660;2023-07-13T00:30:59;95565.84;;;19.11;100.00
65800;BME280;52544;48.116;11.660;2023-07-13T00:33:25;95564.38;;;19.08;100.00
65800;BME280;52544;48.116;11.660;2023-07-13T00:35:50;95574.09;;;19.09;100.00
65800;BME280;52544;48.116;11.660;2023-07-13T00:38:16;95579.25;;;19.11;100.00
65800;BME280;52544;48.116;11.660;2023-07-13T00:40:42;95577.41;;;19.11;100.00
65800;BME280;52544;48.116;11.660;2023-07-13T00:43:14;95583.78;;;19.10;100.00
65800;BME280;52544;48.116;11.660;2023-07-13T00:48:09;95577.81;;;19.08;100.00
65800;BME280;52544;48.116;11.660;2023-07-13T00:50:36;95577.13;;;19.06;100.00
65800;BME280;52544;48.116;11.660;2023-07-13T00:53:02;95571.78;;;19.06;100.00
65800;BME280;52544;48.116;11.660;2023-07-13T00:55:28;95563.72;;;19.06;100.00
65800;BME280;52544;48.116;11.660;2023-07-13T00:57:54;95573.81;;;19.04;100.00
65800;BME280;52544;48.116;11.660;2023-07-13T01:00:21;95580.66;;;19.07;100.00
65800;BME280;52544;48.116;11.660;2023-07-13T01:02:47;95575.84;;;19.02;100.00
65800;BME280;52544;48.116;11.660;2023-07-13T01:05:17;95576.66;;;19.03;100.00
65800;BME280;52544;48.116;11.660;2023-07-13T01:07:43;95559.47;;;18.97;100.00
65800;BME280;52544;48.116;11.660;2023-07-13T01:10:11;95556.91;;;19.04;100.00
65800;BME280;52544;48.116;11.660;2023-07-13T01:12:37;95551.81;;;19.09;100.00
65800;BME280;52544;48.116;11.660;2023-07-13T01:15:03;95557.06;;;19.02;100.00
65800;BME280;52544;48.116;11.660;2023-07-13T01:17:30;95536.44;;;19.03;100.00
65800;BME280;52544;48.116;11.660;2023-07-13T01:19:56;95533.03;;;19.09;100.00
65800;BME280;52544;48.116;11.660;2023-07-13T01:22:21;95531.53;;;19.06;100.00
65800;BME280;52544;48.116;11.660;2023-07-13T01:24:51;95533.94;;;19.01;100.00
65800;BME280;52544;48.116;11.660;2023-07-13T01:27:21;95523.22;;;19.01;100.00
65800;BME280;52544;48.116;11.660;2023-07-13T01:29:48;95519.25;;;18.97;100.00
65800;BME280;52544;48.116;11.660;2023-07-13T01:32:19;95514.91;;;18.96;100.00
65800;BME280;52544;48.116;11.660;2023-07-13T01:34:53;95513.25;;;18.95;100.00
65800;BME280;52544;48.116;11.660;2023-07-13T01:37:23;95515.28;;;18.93;100.00
65800;BME280;52544;48.116;11.660;2023-07-13T01:39:49;95509.53;;;18.96;100.00
65800;BME280;52544;48.116;11.660;2023-07-13T01:42:14;95509.91;;;18.93;100.00
65800;BME280;52544;48.116;11.660;2023-07-13T01:44:40;95507.03;;;18.94;100.00
65800;BME280;52544;48.116;11.660;2023-07-13T01:47:05;95511.19;;;18.97;100.00
65800;BME280;52544;48.116;11.660;2023-07-13T01:49:31;95516.56;;;18.97;100.00
65800;BME280;52544;48.116;11.660;2023-07-13T01:51:56;95528.31;;;18.96;100.00
65800;BME280;52544;48.116;11.660;2023-07-13T01:54:22;95531.72;;;18.90;100.00
65800;BME280;52544;48.116;11.660;2023-07-13T01:56:48;95541.25;;;18.92;100.00
65800;BME280;52544;48.116;11.660;2023-07-13T01:59:13;95536.09;;;18.91;100.00
65800;BME280;52544;48.116;11.660;2023-07-13T02:01:38;95543.31;;;18.90;100.00
65800;BME280;52544;48.116;11.660;2023-07-13T02:04:04;95548.09;;;18.95;100.00
65800;BME280;52544;48.116;11.660;2023-07-13T02:06:30;95554.47;;;18.94;100.00
65800;BME280;52544;48.116;11.660;2023-07-13T02:08:55;95562.16;;;18.97;100.00
65800;BME280;52544;48.116;11.660;2023-07-13T02:11:21;95568.91;;;18.93;100.00
65800;BME280;52544;48.116;11.660;2023-07-13T02:13:46;95570.56;;;18.94;100.00
65800;BME280;52544;48.116;11.660;2023-07-13T02:16:11;95563.53;;;18.93;100.00
65800;BME280;52544;48.116;11.660;2023-07-13T02:18:37;95565.94;;;18.88;100.00
65800;BME280;52544;48.116;11.660;2023-07-13T02:21:03;95555.56;;;18.85;100.00
65800;BME280;52544;48.116;11.660;2023-07-13T02:23:28;95567.44;;;18.90;100.00
65800;BME280;52544;48.116;11.660;2023-07-13T02:25:58;95557.69;;;18.89;100.00
65800;BME280;52544;48.116;11.660;2023-07-13T02:28:24;95559.38;;;18.90;100.00
65800;BME280;52544;48.116;11.660;2023-07-13T02:30:50;95563.06;;;18.89;100.00
65800;BME280;52544;48.116;11.660;2023-07-13T02:33:16;95561.88;;;18.92;100.00
65800;BME280;52544;48.116;11.660;2023-07-13T02:35:41;95564.38;;;18.93;100.00
65800;BME280;52544;48.116;11.660;2023-07-13T02:38:07;95572.59;;;18.92;100.00
65800;BME280;52544;48.116;11.660;2023-07-13T02:40:32;95579.81;;;18.91;100.00
65800;BME280;52544;48.116;11.660;2023-07-13T02:42:59;95578.78;;;18.92;100.00
65800;BME280;52544;48.116;11.660;2023-07-13T02:45:25;95588.03;;;18.90;100.00
65800;BME280;52544;48.116;11.660;2023-07-13T02:47:50;95590.06;;;18.88;100.00
65800;BME280;52544;48.116;11.660;2023-07-13T02:50:16;95600.59;;;18.89;100.00
65800;BME280;52544;48.116;11.660;2023-07-13T02:52:41;95608.84;;;18.88;100.00
65800;BME280;52544;48.116;11.660;2023-07-13T02:55:06;95610.50;;;18.89;100.00
65800;BME280;52544;48.116;11.660;2023-07-13T02:57:32;95610.13;;;18.92;100.00
65800;BME280;52544;48.116;11.660;2023-07-13T02:59:58;95612.00;;;18.91;100.00
65800;BME280;52544;48.116;11.660;2023-07-13T03:02:23;95610.97;;;18.92;100.00
65800;BME280;52544;48.116;11.660;2023-07-13T03:04:49;95607.25;;;18.93;100.00
65800;BME280;52544;48.116;11.660;2023-07-13T03:07:14;95608.09;;;18.94;100.00
65800;BME280;52544;48.116;11.660;2023-07-13T03:09:40;95608.16;;;18.86;100.00
65800;BME280;52544;48.116;11.660;2023-07-13T03:12:06;95614.47;;;18.78;100.00
65800;BME280;52544;48.116;11.660;2023-07-13T03:14:32;95609.94;;;18.79;100.00
65800;BME280;52544;48.116;11.660;2023-07-13T03:16:58;95615.44;;;18.77;100.00
65800;BME280;52544;48.116;11.660;2023-07-13T03:19:23;95618.03;;;18.70;100.00
65800;BME280;52544;48.116;11.660;2023-07-13T03:21:49;95619.78;;;18.55;100.00
65800;BME280;52544;48.116;11.660;2023-07-13T03:24:14;95619.78;;;18.55;100.00
65800;BME280;52544;48.116;11.660;2023-07-13T03:26:40;95625.16;;;18.55;100.00
65800;BME280;52544;48.116;11.660;2023-07-13T03:29:05;95630.22;;;18.50;100.00
65800;BME280;52544;48.116;11.660;2023-07-13T03:31:34;95632.91;;;18.50;100.00
65800;BME280;52544;48.116;11.660;2023-07-13T03:33:59;95626.22;;;18.46;100.00
65800;BME280;52544;48.116;11.660;2023-07-13T03:36:27;95627.06;;;18.46;100.00
65800;BME280;52544;48.116;11.660;2023-07-13T03:38:56;95626.56;;;18.43;100.00
65800;BME280;52544;48.116;11.660;2023-07-13T03:41:24;95637.66;;;18.40;100.00
65800;BME280;52544;48.116;11.660;2023-07-13T03:43:50;95646.06;;;18.37;100.00
65800;BME280;52544;48.116;11.660;2023-07-13T03:46:16;95647.75;;;18.30;100.00
65800;BME280;52544;48.116;11.660;2023-07-13T03:48:43;95645.47;;;18.27;100.00
65800;BME280;52544;48.116;11.660;2023-07-13T03:51:10;95642.28;;;18.23;100.00
65800;BME280;52544;48.116;11.660;2023-07-13T03:53:40;95639.63;;;18.23;100.00
65800;BME280;52544;48.116;11.660;2023-07-13T03:56:06;95638.47;;;18.17;100.00
65800;BME280;52544;48.116;11.660;2023-07-13T03:58:37;95647.50;;;18.16;100.00
65800;BME280;52544;48.116;11.660;2023-07-13T04:01:05;95650.00;;;18.18;100.00
65800;BME280;52544;48.116;11.660;2023-07-13T04:03:31;95644.19;;;18.14;100.00
65800;BME280;52544;48.116;11.660;2023-07-13T04:05:59;95651.22;;;18.15;100.00
65800;BME280;52544;48.116;11.660;2023-07-13T04:08:30;95651.41;;;18.14;100.00
65800;BME280;52544;48.116;11.660;2023-07-13T04:10:56;95652.56;;;18.11;100.00
65800;BME280;52544;48.116;11.660;2023-07-13T04:13:22;95648.38;;;18.09;100.00
65800;BME280;52544;48.116;11.660;2023-07-13T04:15:47;95654.28;;;18.04;100.00
65800;BME280;52544;48.116;11.660;2023-07-13T04:18:13;95645.94;;;17.99;100.00
65800;BME280;52544;48.116;11.660;2023-07-13T04:20:38;95643.94;;;18.01;100.00
65800;BME280;52544;48.116;11.660;2023-07-13T04:23:04;95647.06;;;18.05;100.00
65800;BME280;52544;48.116;11.660;2023-07-13T04:25:29;95662.97;;;18.06;100.00
65800;BME280;52544;48.116;11.660;2023-07-13T04:27:55;95664.97;;;18.04;100.00
65800;BME280;52544;48.116;11.660;2023-07-13T04:30:22;95660.84;;;18.02;100.00
65800;BME280;52544;48.116;11.660;2023-07-13T04:32:48;95656.66;;;17.99;100.00
65800;BME280;52544;48.116;11.660;2023-07-13T04:35:14;95657.66;;;17.98;100.00
65800;BME280;52544;48.116;11.660;2023-07-13T04:37:40;95655.81;;;17.98;100.00
65800;BME280;52544;48.116;11.660;2023-07-13T04:40:06;95660.84;;;18.02;100.00
65800;BME280;52544;48.116;11.660;2023-07-13T04:42:32;95660.84;;;18.02;100.00
65800;BME280;52544;48.116;11.660;2023-07-13T04:44:59;95668.19;;;17.99;100.00
65800;BME280;52544;48.116;11.660;2023-07-13T04:47:25;95671.88;;;17.98;100.00
65800;BME280;52544;48.116;11.660;2023-07-13T04:49:50;95677.06;;;18.00;100.00
65800;BME280;52544;48.116;11.660;2023-07-13T04:52:15;95680.56;;;18.01;100.00
65800;BME280;52544;48.116;11.660;2023-07-13T04:54:41;95672.72;;;17.99;100.00
65800;BME280;52544;48.116;11.660;2023-07-13T04:57:07;95672.72;;;17.99;100.00
65800;BME280;52544;48.116;11.660;2023-07-13T04:59:33;95682.25;;;18.02;100.00
65800;BME280;52544;48.116;11.660;2023-07-13T05:01:59;95689.25;;;18.03;100.00
65800;BME280;52544;48.116;11.660;2023-07-13T05:04:24;95691.25;;;18.01;100.00
65800;BME280;52544;48.116;11.660;2023-07-13T05:06:50;95687.25;;;17.96;100.00
65800;BME280;52544;48.116;11.660;2023-07-13T05:09:15;95691.63;;;17.97;100.00
65800;BME280;52544;48.116;11.660;2023-07-13T05:11:42;95697.34;;;17.94;100.00
65800;BME280;52544;48.116;11.660;2023-07-13T05:14:08;95699.00;;;17.95;100.00
65800;BME280;52544;48.116;11.660;2023-07-13T05:16:35;95696.84;;;17.91;100.00
65800;BME280;52544;48.116;11.660;2023-07-13T05:19:00;95696.00;;;17.90;100.00
65800;BME280;52544;48.116;11.660;2023-07-13T05:21:25;95687.78;;;17.92;100.00
65800;BME280;52544;48.116;11.660;2023-07-13T05:23:51;95691.78;;;17.96;100.00
65800;BME280;52544;48.116;11.660;2023-07-13T05:26:16;95687.13;;;17.98;100.00
65800;BME280;52544;48.116;11.660;2023-07-13T05:28:42;95685.78;;;17.94;100.00
65800;BME280;52544;48.116;11.660;2023-07-13T05:31:09;95692.81;;;17.95;100.00
65800;BME280;52544;48.116;11.660;2023-07-13T05:33:34;95702.88;;;17.93;100.00
65800;BME280;52544;48.116;11.660;2023-07-13T05:36:00;95704.34;;;17.95;100.00
65800;BME280;52544;48.116;11.660;2023-07-13T05:38:26;95705.03;;;17.97;100.00
65800;BME280;52544;48.116;11.660;2023-07-13T05:40:54;95702.50;;;17.96;100.00
65800;BME280;52544;48.116;11.660;2023-07-13T05:43:19;95715.56;;;17.99;100.00
65800;BME280;52544;48.116;11.660;2023-07-13T05:45:44;95703.19;;;17.98;100.00
65800;BME280;52544;48.116;11.660;2023-07-13T05:48:10;95708.19;;;18.01;100.00
65800;BME280;52544;48.116;11.660;2023-07-13T05:50:35;95707.50;;;17.99;100.00
65800;BME280;52544;48.116;11.660;2023-07-13T05:53:01;95705.50;;;18.01;100.00
65800;BME280;52544;48.116;11.660;2023-07-13T05:55:26;95704.13;;;18.05;100.00
65800;BME280;52544;48.116;11.660;2023-07-13T05:57:52;95705.16;;;18.04;100.00
65800;BME280;52544;48.116;11.660;2023-07-13T06:00:17;95702.31;;;18.06;100.00
65800;BME280;52544;48.116;11.660;2023-07-13T06:02:43;95712.50;;;18.10;100.00
65800;BME280;52544;48.116;11.660;2023-07-13T06:05:08;95704.59;;;18.17;100.00
65800;BME280;52544;48.116;11.660;2023-07-13T06:07:34;95694.19;;;18.22;100.00
65800;BME280;52544;48.116;11.660;2023-07-13T06:09:59;95710.91;;;18.24;100.00
65800;BME280;52544;48.116;11.660;2023-07-13T06:12:25;95719.16;;;18.22;100.00
65800;BME280;52544;48.116;11.660;2023-07-13T06:14:50;95718.13;;;18.23;100.00
65800;BME280;52544;48.116;11.660;2023-07-13T06:17:16;95718.44;;;18.29;100.00
65800;BME280;52544;48.116;11.660;2023-07-13T06:19:41;95713.06;;;18.29;100.00
65800;BME280;52544;48.116;11.660;2023-07-13T06:22:07;95727.78;;;18.33;100.00
65800;BME280;52544;48.116;11.660;2023-07-13T06:24:32;95726.94;;;18.32;100.00
65800;BME280;52544;48.116;11.660;2023-07-13T06:26:57;95728.09;;;18.38;100.00
65800;BME280;52544;48.116;11.660;2023-07-13T06:29:23;95735.59;;;18.42;100.00
65800;BME280;52544;48.116;11.660;2023-07-13T06:31:48;95743.09;;;18.47;100.00
65800;BME280;52544;48.116;11.660;2023-07-13T06:34:13;95734.72;;;18.50;100.00
65800;BME280;52544;48.116;11.660;2023-07-13T06:36:39;95743.44;;;18.52;100.00
65800;BME280;52544;48.116;11.660;2023-07-13T06:39:06;95744.06;;;18.54;100.00
65800;BME280;52544;48.116;11.660;2023-07-13T06:41:32;95744.91;;;18.55;100.00
65800;BME280;52544;48.116;11.660;2023-07-13T06:43:58;95751.78;;;18.57;100.00
65800;BME280;52544;48.116;11.660;2023-07-13T06:46:24;95753.94;;;18.62;100.00
65800;BME280;52544;48.116;11.660;2023-07-13T06:48:49;95751.34;;;18.68;100.00
65800;BME280;52544;48.116;11.660;2023-07-13T06:51:15;95750.22;;;18.63;100.00
65800;BME280;52544;48.116;11.660;2023-07-13T06:53:40;95758.75;;;18.66;100.00
65800;BME280;52544;48.116;11.660;2023-07-13T06:56:07;95758.56;;;18.68;100.00
65800;BME280;52544;48.116;11.660;2023-07-13T06:58:34;95762.78;;;18.70;100.00
65800;BME280;52544;48.116;11.660;2023-07-13T07:00:59;95759.91;;;18.72;100.00
65800;BME280;52544;48.116;11.660;2023-07-13T07:03:24;95758.72;;;18.75;100.00
65800;BME280;52544;48.116;11.660;2023-07-13T07:05:50;95759.38;;;18.77;100.00
65800;BME280;52544;48.116;11.660;2023-07-13T07:08:16;95764.94;;;18.75;100.00
65800;BME280;52544;48.116;11.660;2023-07-13T07:10:41;95768.97;;;18.71;100.00
65800;BME280;52544;48.116;11.660;2023-07-13T07:13:07;95763.25;;;18.74;100.00
65800;BME280;52544;48.116;11.660;2023-07-13T07:15:34;95763.75;;;18.78;100.00
65800;BME280;52544;48.116;11.660;2023-07-13T07:18:00;95763.38;;;18.81;100.00
65800;BME280;52544;48.116;11.660;2023-07-13T07:20:26;95760.84;;;18.87;100.00
65800;BME280;52544;48.116;11.660;2023-07-13T07:22:52;95755.28;;;18.89;100.00
65800;BME280;52544;48.116;11.660;2023-07-13T07:25:17;95755.47;;;18.87;100.00
65800;BME280;52544;48.116;11.660;2023-07-13T07:27:43;95758.63;;;18.91;100.00
65800;BME280;52544;48.116;11.660;2023-07-13T07:30:09;95757.25;;;18.95;100.00
65800;BME280;52544;48.116;11.660;2023-07-13T07:32:34;95762.31;;;18.90;100.00
65800;BME280;52544;48.116;11.660;2023-07-13T07:35:00;95763.63;;;18.94;100.00
65800;BME280;52544;48.116;11.660;2023-07-13T07:37:25;95768.56;;;18.82;100.00
65800;BME280;52544;48.116;11.660;2023-07-13T07:39:51;95773.47;;;18.79;100.00
65800;BME280;52544;48.116;11.660;2023-07-13T07:42:16;95777.44;;;18.83;100.00
65800;BME280;52544;48.116;11.660;2023-07-13T07:44:42;95782.88;;;18.75;100.00
65800;BME280;52544;48.116;11.660;2023-07-13T07:47:08;95787.69;;;18.79;100.00
65800;BME280;52544;48.116;11.660;2023-07-13T07:49:35;95797.59;;;18.79;100.00
65800;BME280;52544;48.116;11.660;2023-07-13T07:52:00;95809.66;;;18.75;100.00
65800;BME280;52544;48.116;11.660;2023-07-13T07:54:26;95812.34;;;18.75;100.00
65800;BME280;52544;48.116;11.660;2023-07-13T07:56:51;95818.06;;;18.71;100.00
65800;BME280;52544;48.116;11.660;2023-07-13T07:59:16;95816.38;;;18.70;100.00
65800;BME280;52544;48.116;11.660;2023-07-13T08:01:42;95812.34;;;18.66;100.00
65800;BME280;52544;48.116;11.660;2023-07-13T08:04:08;95810.22;;;18.62;100.00
65800;BME280;52544;48.116;11.660;2023-07-13T08:06:34;95814.03;;;18.67;100.00
65800;BME280;52544;48.116;11.660;2023-07-13T08:09:00;95815.38;;;18.63;100.00
65800;BME280;52544;48.116;11.660;2023-07-13T08:11:26;95823.75;;;18.60;100.00
65800;BME280;52544;48.116;11.660;2023-07-13T08:13:52;95829.00;;;18.54;100.00
65800;BME280;52544;48.116;11.660;2023-07-13T08:16:17;95822.97;;;18.52;100.00
65800;BME280;52544;48.116;11.660;2023-07-13T08:18:43;95827.50;;;18.51;100.00
65800;BME280;52544;48.116;11.660;2023-07-13T08:21:09;95823.81;;;18.52;100.00
65800;BME280;52544;48.116;11.660;2023-07-13T08:23:35;95832.72;;;18.44;100.00
65800;BME280;52544;48.116;11.660;2023-07-13T08:26:01;95824.00;;;18.42;100.00
65800;BME280;52544;48.116;11.660;2023-07-13T08:28:28;95839.75;;;18.45;100.00
65800;BME280;52544;48.116;11.660;2023-07-13T08:30:53;95830.59;;;18.32;100.00
65800;BME280;52544;48.116;11.660;2023-07-13T08:33:20;95829.59;;;18.33;100.00
65800;BME280;52544;48.116;11.660;2023-07-13T08:35:47;95836.94;;;18.31;100.00
65800;BME280;52544;48.116;11.660;2023-07-13T08:38:13;95840.00;;;18.28;100.00
65800;BME280;52544;48.116;11.660;2023-07-13T08:40:39;95840.50;;;18.31;100.00
65800;BME280;52544;48.116;11.660;2023-07-13T08:43:12;95839.97;;;18.36;100.00
65800;BME280;52544;48.116;11.660;2023-07-13T08:45:47;95846.16;;;18.36;100.00
65800;BME280;52544;48.116;11.660;2023-07-13T08:48:20;95847.16;;;18.35;100.00
65800;BME280;52544;48.116;11.660;2023-07-13T08:50:54;95863.06;;;18.37;100.00
65800;BME280;52544;48.116;11.660;2023-07-13T08:53:23;95856.69;;;18.38;100.00
65800;BME280;52544;48.116;11.660;2023-07-13T08:55:57;95850.53;;;18.29;100.00
65800;BME280;52544;48.116;11.660;2023-07-13T08:58:25;95859.88;;;18.33;100.00
65800;BME280;52544;48.116;11.660;2023-07-13T09:01:02;95863.72;;;18.31;100.00
65800;BME280;52544;48.116;11.660;2023-07-13T09:03:44;95868.41;;;18.37;100.00
65800;BME280;52544;48.116;11.660;2023-07-13T09:06:13;95870.91;;;18.38;100.00
65800;BME280;52544;48.116;11.660;2023-07-13T09:11:27;95864.06;;;18.44;100.00
65800;BME280;52544;48.116;11.660;2023-07-13T09:16:37;95849.94;;;18.50;100.00
65800;BME280;52544;48.116;11.660;2023-07-13T09:19:06;95848.94;;;18.51;100.00
65800;BME280;52544;48.116;11.660;2023-07-13T09:21:37;95850.63;;;18.52;100.00
65800;BME280;52544;48.116;11.660;2023-07-13T09:24:41;95851.31;;;18.46;100.00
65800;BME280;52544;48.116;11.660;2023-07-13T09:27:19;95851.47;;;18.53;100.00
65800;BME280;52544;48.116;11.660;2023-07-13T09:29:49;95852.59;;;18.58;100.00
65800;BME280;52544;48.116;11.660;2023-07-13T09:32:18;95861.97;;;18.62;100.00
65800;BME280;52544;48.116;11.660;2023-07-13T09:34:53;95849.56;;;18.61;100.00
65800;BME280;52544;48.116;11.660;2023-07-13T09:37:29;95860.78;;;18.65;100.00
65800;BME280;52544;48.116;11.660;2023-07-13T09:39:55;95859.47;;;18.61;100.00
65800;BME280;52544;48.116;11.660;2023-07-13T09:42:22;95860.28;;;18.69;100.00
65800;BME280;52544;48.116;11.660;2023-07-13T09:44:56;95866.63;;;18.68;100.00
65800;BME280;52544;48.116;11.660;2023-07-13T09:47:24;95868.31;;;18.78;100.00
65800;BME280;52544;48.116;11.660;2023-07-13T09:50:00;95869.97;;;18.79;100.00
65800;BME280;52544;48.116;11.660;2023-07-13T09:52:26;95864.72;;;18.85;100.00
65800;BME280;52544;48.116;11.660;2023-07-13T09:54:53;95868.09;;;18.87;100.00
65800;BME280;52544;48.116;11.660;2023-07-13T09:57:26;95864.88;;;18.92;100.00
65800;BME280;52544;48.116;11.660;2023-07-13T09:59:52;95858.16;;;18.96;100.00
65800;BME280;52544;48.116;11.660;2023-07-13T10:02:34;95856.59;;;19.02;100.00
65800;BME280;52544;48.116;11.660;2023-07-13T10:05:04;95861.63;;;19.05;100.00
65800;BME280;52544;48.116;11.660;2023-07-13T10:07:31;95860.06;;;19.10;100.00
65800;BME280;52544;48.116;11.660;2023-07-13T10:10:00;95861.03;;;19.17;100.00
65800;BME280;52544;48.116;11.660;2023-07-13T10:12:30;95859.97;;;19.27;100.00
65800;BME280;52544;48.116;11.660;2023-07-13T10:15:01;95870.00;;;19.33;100.00
65800;BME280;52544;48.116;11.660;2023-07-13T10:17:31;95868.94;;;19.42;100.00
65800;BME280;52544;48.116;11.660;2023-07-13T10:20:06;95866.28;;;19.57;100.00
65800;BME280;52544;48.116;11.660;2023-07-13T10:25:23;95867.63;;;19.84;100.00
65800;BME280;52544;48.116;11.660;2023-07-13T10:27:52;95873.00;;;19.98;100.00
65800;BME280;52544;48.116;11.660;2023-07-13T10:30:25;95870.88;;;20.09;100.00
65800;BME280;52544;48.116;11.660;2023-07-13T10:32:53;95866.56;;;20.22;100.00
65800;BME280;52544;48.116;11.660;2023-07-13T10:35:20;95872.78;;;20.38;100.00
65800;BME280;52544;48.116;11.660;2023-07-13T10:37:57;95869.22;;;20.60;100.00
65800;BME280;52544;48.116;11.660;2023-07-13T10:40:34;95868.00;;;20.78;100.00
65800;BME280;52544;48.116;11.660;2023-07-13T10:43:06;95871.88;;;20.90;100.00
65800;BME280;52544;48.116;11.660;2023-07-13T10:45:35;95866.09;;;20.93;100.00
65800;BME280;52544;48.116;11.660;2023-07-13T10:48:03;95871.38;;;21.01;100.00
65800;BME280;52544;48.116;11.660;2023-07-13T10:50:29;95873.56;;;21.12;100.00
65800;BME280;52544;48.116;11.660;2023-07-13T10:53:03;95882.81;;;21.25;99.36
65800;BME280;52544;48.116;11.660;2023-07-13T10:58:28;95867.47;;;21.61;100.00
65800;BME280;52544;48.116;11.660;2023-07-13T11:03:33;95877.34;;;21.97;100.00
65800;BME280;52544;48.116;11.660;2023-07-13T11:06:27;95866.66;;;22.10;100.00
65800;BME280;52544;48.116;11.660;2023-07-13T11:09:18;95870.69;;;22.21;100.00
65800;BME280;52544;48.116;11.660;2023-07-13T11:11:44;95878.75;;;22.14;78.86
65800;BME280;52544;48.116;11.660;2023-07-13T11:14:37;95879.59;;;22.15;83.08
65800;BME280;52544;48.116;11.660;2023-07-13T11:19:51;95872.97;;;22.17;92.07
65800;BME280;52544;48.116;11.660;2023-07-13T11:22:26;95879.31;;;22.31;84.74
65800;BME280;52544;48.116;11.660;2023-07-13T11:30:49;95883.66;;;22.67;75.31
65800;BME280;52544;48.116;11.660;2023-07-13T11:33:28;95890.47;;;22.56;83.12
65800;BME280;52544;48.116;11.660;2023-07-13T11:36:02;95876.38;;;22.61;89.26
65800;BME280;52544;48.116;11.660;2023-07-13T11:41:12;95874.72;;;22.66;99.13
65800;BME280;52544;48.116;11.660;2023-07-13T11:43:38;95859.59;;;22.72;86.46
65800;BME280;52544;48.116;11.660;2023-07-13T11:46:21;95855.53;;;22.89;88.07
65800;BME280;52544;48.116;11.660;2023-07-13T11:48:48;95843.25;;;23.22;86.33
65800;BME280;52544;48.116;11.660;2023-07-13T11:51:37;95836.03;;;23.55;88.95
65800;BME280;52544;48.116;11.660;2023-07-13T11:56:44;95830.28;;;23.98;78.93
65800;BME280;52544;48.116;11.660;2023-07-13T11:59:12;95839.19;;;24.12;74.86
65800;BME280;52544;48.116;11.660;2023-07-13T12:01:49;95832.94;;;24.31;73.38
65800;BME280;52544;48.116;11.660;2023-07-13T12:04:32;95837.13;;;24.40;77.21
65800;BME280;52544;48.116;11.660;2023-07-13T12:07:05;95827.94;;;24.28;85.67
65800;BME280;52544;48.116;11.660;2023-07-13T12:09:33;95824.25;;;24.09;91.71
65800;BME280;52544;48.116;11.660;2023-07-13T12:11:58;95826.53;;;23.92;91.34
65800;BME280;52544;48.116;11.660;2023-07-13T12:14:25;95824.03;;;23.78;90.66
65800;BME280;52544;48.116;11.660;2023-07-13T12:16:52;95827.56;;;23.72;90.31
65800;BME280;52544;48.116;11.660;2023-07-13T12:21:48;95825.91;;;23.71;91.62
65800;BME280;52544;48.116;11.660;2023-07-13T12:24:19;95827.97;;;23.62;87.24
65800;BME280;52544;48.116;11.660;2023-07-13T12:26:54;95825.25;;;23.62;100.00
65800;BME280;52544;48.116;11.660;2023-07-13T12:29:20;95813.88;;;23.66;96.32
65800;BME280;52544;48.116;11.660;2023-07-13T12:31:48;95811.38;;;23.85;84.70
65800;BME280;52544;48.116;11.660;2023-07-13T12:34:19;95816.56;;;23.93;77.00
65800;BME280;52544;48.116;11.660;2023-07-13T12:41:42;95819.00;;;23.48;88.58
65800;BME280;52544;48.116;11.660;2023-07-13T12:44:14;95814.81;;;23.39;85.25
65800;BME280;52544;48.116;11.660;2023-07-13T12:46:52;95819.59;;;23.30;85.36
65800;BME280;52544;48.116;11.660;2023-07-13T12:49:23;95818.91;;;23.08;84.08
65800;BME280;52544;48.116;11.660;2023-07-13T12:51:50;95815.34;;;23.01;93.12
65800;BME280;52544;48.116;11.660;2023-07-13T12:54:20;95811.53;;;22.89;82.14
65800;BME280;52544;48.116;11.660;2023-07-13T12:56:49;95799.34;;;22.93;100.00
65800;BME280;52544;48.116;11.660;2023-07-13T12:59:21;95807.03;;;22.96;94.55
65800;BME280;52544;48.116;11.660;2023-07-13T13:01:48;95803.28;;;22.90;91.71
65800;BME280;52544;48.116;11.660;2023-07-13T13:04:19;95805.53;;;22.87;100.00
65800;BME280;52544;48.116;11.660;2023-07-13T13:06:47;95798.22;;;22.81;97.81
65800;BME280;52544;48.116;11.660;2023-07-13T13:09:14;95804.94;;;22.91;100.00
65800;BME280;52544;48.116;11.660;2023-07-13T13:11:40;95788.63;;;23.19;90.70
65800;BME280;52544;48.116;11.660;2023-07-13T13:14:06;95789.09;;;23.50;91.96
65800;BME280;52544;48.116;11.660;2023-07-13T13:16:48;95775.63;;;23.76;87.92
65800;BME280;52544;48.116;11.660;2023-07-13T13:19:23;95781.41;;;24.00;85.14
65800;BME280;52544;48.116;11.660;2023-07-13T13:21:50;95783.03;;;24.20;79.70